sensor_id;sensor_type;location;lat;lon;timestamp;P1;durP1;ratioP1;P2;durP2;ratioP2
10872;SDS011;34586;53.616;10.032;2023-08-21T00:00:22;8.00;;;2.77;;
10872;SDS011;34586;53.616;10.032;2023-08-21T00:02:48;4.77;;;2.77;;
10872;SDS011;34586;53.616;10.032;2023-08-21T00:05:13;7.80;;;2.90;;
10872;SDS011;34586;53.616;10.032;2023-08-21T00:07:39;8.30;;;3.90;;
10872;SDS011;34586;53.616;10.032;2023-08-21T00:10:05;11.33;;;3.30;;
10872;SDS011;34586;53.616;10.032;2023-08-21T00:12:31;8.77;;;3.10;;
10872;SDS011;34586;53.616;10.032;2023-08-21T00:14:57;9.63;;;3.40;;
10872;SDS011;34586;53.616;10.032;2023-08-21T00:17:22;5.33;;;2.80;;
10872;SDS011;34586;53.616;10.032;2023-08-21T00:19:48;11.00;;;3.40;;
10872;SDS011;34586;53.616;10.032;2023-08-21T00:22:14;7.20;;;3.07;;
10872;SDS011;34586;53.616;10.032;2023-08-21T00:24:40;6.43;;;2.90;;
10872;SDS011;34586;53.616;10.032;2023-08-21T00:27:05;5.50;;;2.83;;
10872;SDS011;34586;53.616;10.032;2023-08-21T00:29:31;8.07;;;2.80;;
10872;SDS011;34586;53.616;10.032;2023-08-21T00:31:56;8.17;;;3.50;;
10872;SDS011;34586;53.616;10.032;2023-08-21T00:34:22;9.00;;;3.37;;
10872;SDS011;34586;53.616;10.032;2023-08-21T00:36:47;6.83;;;3.10;;
10872;SDS011;34586;53.616;10.032;2023-08-21T00:39:13;8.27;;;3.07;;
10872;SDS011;34586;53.616;10.032;2023-08-21T00:41:39;5.87;;;2.90;;
10872;SDS011;34586;53.616;10.032;2023-08-21T00:44:04;4.97;;;3.00;;
10872;SDS011;34586;53.616;10.032;2023-08-21T00:46:30;7.50;;;3.20;;
10872;SDS011;34586;53.616;10.032;2023-08-21T00:48:57;4.57;;;2.60;;
10872;SDS011;34586;53.616;10.032;2023-08-21T00:51:23;6.30;;;3.00;;
10872;SDS011;34586;53.616;10.032;2023-08-21T00:53:49;7.60;;;2.93;;
10872;SDS011;34586;53.616;10.032;2023-08-21T00:56:14;5.53;;;3.37;;
10872;SDS011;34586;53.616;10.032;2023-08-21T00:58:40;6.57;;;2.90;;
10872;SDS011;34586;53.616;10.032;2023-08-21T01:01:07;6.57;;;2.90;;
10872;SDS011;34586;53.616;10.032;2023-08-21T01:03:33;9.23;;;3.03;;
10872;SDS011;34586;53.616;10.032;2023-08-21T01:05:58;6.00;;;2.87;;
10872;SDS011;34586;53.616;10.032;2023-08-21T01:08:45;7.40;;;2.93;;
10872;SDS011;34586;53.616;10.032;2023-08-21T01:11:21;5.67;;;3.10;;
10872;SDS011;34586;53.616;10.032;2023-08-21T01:16:23;7.57;;;3.13;;
10872;SDS011;34586;53.616;10.032;2023-08-21T01:18:50;7.43;;;3.07;;
10872;SDS011;34586;53.616;10.032;2023-08-21T01:21:18;6.37;;;2.80;;
10872;SDS011;34586;53.616;10.032;2023-08-21T01:23:44;6.80;;;3.30;;
10872;SDS011;34586;53.616;10.032;2023-08-21T01:26:10;5.43;;;3.03;;
10872;SDS011;34586;53.616;10.032;2023-08-21T01:28:35;5.80;;;2.97;;
10872;SDS011;34586;53.616;10.032;2023-08-21T01:31:07;6.30;;;2.97;;
10872;SDS011;34586;53.616;10.032;2023-08-21T01:33:35;10.07;;;3.13;;
10872;SDS011;34586;53.616;10.032;2023-08-21T01:36:07;6.90;;;3.20;;
10872;SDS011;34586;53.616;10.032;2023-08-21T01:38:33;6.27;;;3.63;;
10872;SDS011;34586;53.616;10.032;2023-08-21T01:41:00;6.93;;;2.97;;
10872;SDS011;34586;53.616;10.032;2023-08-21T01:43:26;5.83;;;3.10;;
10872;SDS011;34586;53.616;10.032;2023-08-21T01:45:52;6.70;;;3.17;;
10872;SDS011;34586;53.616;10.032;2023-08-21T01:48:18;5.13;;;3.00;;
10872;SDS011;34586;53.616;10.032;2023-08-21T01:50:43;4.53;;;3.27;;
10872;SDS011;34586;53.616;10.032;2023-08-21T01:53:09;6.67;;;3.50;;
10872;SDS011;34586;53.616;10.032;2023-08-21T01:55:34;4.20;;;2.60;;
10872;SDS011;34586;53.616;10.032;2023-08-21T01:58:00;6.43;;;3.40;;
10872;SDS011;34586;53.616;10.032;2023-08-21T02:00:26;6.97;;;3.07;;
10872;SDS011;34586;53.616;10.032;2023-08-21T02:02:51;7.33;;;3.23;;
10872;SDS011;34586;53.616;10.032;2023-08-21T02:05:17;7.90;;;3.10;;
10872;SDS011;34586;53.616;10.032;2023-08-21T02:07:42;7.83;;;3.50;;
10872;SDS011;34586;53.616;10.032;2023-08-21T02:10:08;5.43;;;2.73;;
10872;SDS011;34586;53.616;10.032;2023-08-21T02:12:34;7.53;;;3.13;;
10872;SDS011;34586;53.616;10.032;2023-08-21T02:14:59;3.27;;;2.70;;
10872;SDS011;34586;53.616;10.032;2023-08-21T02:17:28;7.90;;;3.50;;
10872;SDS011;34586;53.616;10.032;2023-08-21T02:19:54;8.00;;;3.70;;
10872;SDS011;34586;53.616;10.032;2023-08-21T02:22:20;7.60;;;3.90;;
10872;SDS011;34586;53.616;10.032;2023-08-21T02:24:46;6.73;;;3.50;;
10872;SDS011;34586;53.616;10.032;2023-08-21T02:27:11;6.93;;;3.60;;
10872;SDS011;34586;53.616;10.032;2023-08-21T02:29:37;5.33;;;3.33;;
10872;SDS011;34586;53.616;10.032;2023-08-21T02:32:03;5.13;;;3.13;;
10872;SDS011;34586;53.616;10.032;2023-08-21T02:34:28;7.57;;;3.20;;
10872;SDS011;34586;53.616;10.032;2023-08-21T02:36:54;6.10;;;3.40;;
10872;SDS011;34586;53.616;10.032;2023-08-21T02:39:20;8.73;;;3.50;;
10872;SDS011;34586;53.616;10.032;2023-08-21T02:41:45;7.13;;;3.37;;
10872;SDS011;34586;53.616;10.032;2023-08-21T02:44:11;6.57;;;3.17;;
10872;SDS011;34586;53.616;10.032;2023-08-21T02:46:36;5.37;;;3.40;;
10872;SDS011;34586;53.616;10.032;2023-08-21T02:49:02;6.43;;;3.27;;
10872;SDS011;34586;53.616;10.032;2023-08-21T02:51:28;8.27;;;3.40;;
10872;SDS011;34586;53.616;10.032;2023-08-21T02:53:53;8.80;;;4.33;;
10872;SDS011;34586;53.616;10.032;2023-08-21T02:56:19;7.10;;;3.90;;
10872;SDS011;34586;53.616;10.032;2023-08-21T02:58:44;6.33;;;3.87;;
10872;SDS011;34586;53.616;10.032;2023-08-21T03:01:10;8.70;;;3.90;;
10872;SDS011;34586;53.616;10.032;2023-08-21T03:03:36;9.30;;;4.07;;
10872;SDS011;34586;53.616;10.032;2023-08-21T03:06:02;8.47;;;4.20;;
10872;SDS011;34586;53.616;10.032;2023-08-21T03:08:28;9.87;;;4.60;;
10872;SDS011;34586;53.616;10.032;2023-08-21T03:10:53;9.70;;;4.13;;
10872;SDS011;34586;53.616;10.032;2023-08-21T03:13:19;7.20;;;4.17;;
10872;SDS011;34586;53.616;10.032;2023-08-21T03:15:44;11.57;;;4.40;;
10872;SDS011;34586;53.616;10.032;2023-08-21T03:18:10;9.07;;;4.77;;
10872;SDS011;34586;53.616;10.032;2023-08-21T03:20:35;8.10;;;4.17;;
10872;SDS011;34586;53.616;10.032;2023-08-21T03:23:01;8.33;;;5.30;;
10872;SDS011;34586;53.616;10.032;2023-08-21T03:25:27;10.17;;;5.00;;
10872;SDS011;34586;53.616;10.032;2023-08-21T03:27:53;10.27;;;5.10;;
10872;SDS011;34586;53.616;10.032;2023-08-21T03:30:19;9.27;;;4.63;;
10872;SDS011;34586;53.616;10.032;2023-08-21T03:32:44;12.13;;;5.10;;
10872;SDS011;34586;53.616;10.032;2023-08-21T03:35:10;10.13;;;4.97;;
10872;SDS011;34586;53.616;10.032;2023-08-21T03:37:36;7.60;;;4.97;;
10872;SDS011;34586;53.616;10.032;2023-08-21T03:40:02;11.60;;;4.77;;
10872;SDS011;34586;53.616;10.032;2023-08-21T03:42:29;5.87;;;4.43;;
10872;SDS011;34586;53.616;10.032;2023-08-21T03:44:54;7.17;;;4.47;;
10872;SDS011;34586;53.616;10.032;2023-08-21T03:47:20;10.73;;;4.90;;
10872;SDS011;34586;53.616;10.032;2023-08-21T03:49:46;9.03;;;5.10;;
10872;SDS011;34586;53.616;10.032;2023-08-21T03:52:13;13.80;;;5.07;;
10872;SDS011;34586;53.616;10.032;2023-08-21T03:54:38;8.73;;;4.40;;
10872;SDS011;34586;53.616;10.032;2023-08-21T03:57:04;10.70;;;4.97;;
10872;SDS011;34586;53.616;10.032;2023-08-21T03:59:30;11.90;;;5.13;;
10872;SDS011;34586;53.616;10.032;2023-08-21T04:01:55;7.70;;;4.47;;
10872;SDS011;34586;53.616;10.032;2023-08-21T04:04:21;8.10;;;4.53;;
10872;SDS011;34586;53.616;10.032;2023-08-21T04:06:46;12.57;;;4.87;;
10872;SDS011;34586;53.616;10.032;2023-08-21T04:09:12;8.40;;;4.40;;
10872;SDS011;34586;53.616;10.032;2023-08-21T04:11:37;9.57;;;4.33;;
10872;SDS011;34586;53.616;10.032;2023-08-21T04:14:03;8.57;;;4.50;;
10872;SDS011;34586;53.616;10.032;2023-08-21T04:16:29;7.67;;;4.10;;
10872;SDS011;34586;53.616;10.032;2023-08-21T04:18:55;6.63;;;4.73;;
10872;SDS011;34586;53.616;10.032;2023-08-21T04:21:22;7.80;;;4.63;;
10872;SDS011;34586;53.616;10.032;2023-08-21T04:23:47;6.43;;;4.63;;
10872;SDS011;34586;53.616;10.032;2023-08-21T04:26:13;8.83;;;4.80;;
10872;SDS011;34586;53.616;10.032;2023-08-21T04:28:39;8.90;;;4.67;;
10872;SDS011;34586;53.616;10.032;2023-08-21T04:31:05;8.60;;;4.33;;
10872;SDS011;34586;53.616;10.032;2023-08-21T04:33:31;10.83;;;5.57;;
10872;SDS011;34586;53.616;10.032;2023-08-21T04:35:59;8.10;;;4.80;;
10872;SDS011;34586;53.616;10.032;2023-08-21T04:38:24;7.53;;;4.70;;
10872;SDS011;34586;53.616;10.032;2023-08-21T04:40:50;8.17;;;4.70;;
10872;SDS011;34586;53.616;10.032;2023-08-21T04:43:16;9.43;;;5.20;;
10872;SDS011;34586;53.616;10.032;2023-08-21T04:45:48;4.87;;;4.03;;
10872;SDS011;34586;53.616;10.032;2023-08-21T04:48:20;11.73;;;5.47;;
10872;SDS011;34586;53.616;10.032;2023-08-21T04:50:46;7.73;;;4.70;;
10872;SDS011;34586;53.616;10.032;2023-08-21T04:53:12;7.03;;;5.00;;
10872;SDS011;34586;53.616;10.032;2023-08-21T04:55:39;9.03;;;4.67;;
10872;SDS011;34586;53.616;10.032;2023-08-21T04:58:05;11.20;;;5.47;;
10872;SDS011;34586;53.616;10.032;2023-08-21T05:00:31;9.60;;;5.63;;
10872;SDS011;34586;53.616;10.032;2023-08-21T05:02:57;10.80;;;6.13;;
10872;SDS011;34586;53.616;10.032;2023-08-21T05:05:23;19.80;;;8.37;;
10872;SDS011;34586;53.616;10.032;2023-08-21T05:07:48;14.50;;;7.60;;
10872;SDS011;34586;53.616;10.032;2023-08-21T05:10:14;17.37;;;8.30;;
10872;SDS011;34586;53.616;10.032;2023-08-21T05:12:40;14.73;;;8.00;;
10872;SDS011;34586;53.616;10.032;2023-08-21T05:15:06;16.80;;;8.07;;
10872;SDS011;34586;53.616;10.032;2023-08-21T05:17:31;16.63;;;7.93;;
10872;SDS011;34586;53.616;10.032;2023-08-21T05:19:57;15.50;;;8.27;;
10872;SDS011;34586;53.616;10.032;2023-08-21T05:22:23;13.90;;;6.73;;
10872;SDS011;34586;53.616;10.032;2023-08-21T05:24:48;16.67;;;7.83;;
10872;SDS011;34586;53.616;10.032;2023-08-21T05:27:14;13.90;;;6.53;;
10872;SDS011;34586;53.616;10.032;2023-08-21T05:29:39;15.27;;;7.40;;
10872;SDS011;34586;53.616;10.032;2023-08-21T05:32:05;14.97;;;7.23;;
10872;SDS011;34586;53.616;10.032;2023-08-21T05:34:31;14.73;;;7.43;;
10872;SDS011;34586;53.616;10.032;2023-08-21T05:36:57;14.07;;;6.93;;
10872;SDS011;34586;53.616;10.032;2023-08-21T05:39:22;15.03;;;6.77;;
10872;SDS011;34586;53.616;10.032;2023-08-21T05:41:48;15.70;;;7.03;;
10872;SDS011;34586;53.616;10.032;2023-08-21T05:44:13;17.13;;;7.43;;
10872;SDS011;34586;53.616;10.032;2023-08-21T05:46:39;11.50;;;6.33;;
10872;SDS011;34586;53.616;10.032;2023-08-21T05:49:05;14.60;;;6.60;;
10872;SDS011;34586;53.616;10.032;2023-08-21T05:51:30;20.17;;;6.60;;
10872;SDS011;34586;53.616;10.032;2023-08-21T05:53:56;11.00;;;5.93;;
10872;SDS011;34586;53.616;10.032;2023-08-21T05:56:22;11.40;;;5.20;;
10872;SDS011;34586;53.616;10.032;2023-08-21T05:58:48;13.47;;;5.10;;
10872;SDS011;34586;53.616;10.032;2023-08-21T06:01:14;13.23;;;4.97;;
10872;SDS011;34586;53.616;10.032;2023-08-21T06:03:40;11.67;;;5.27;;
10872;SDS011;34586;53.616;10.032;2023-08-21T06:06:05;13.60;;;4.23;;
10872;SDS011;34586;53.616;10.032;2023-08-21T06:08:31;11.40;;;4.13;;
10872;SDS011;34586;53.616;10.032;2023-08-21T06:10:56;10.87;;;3.97;;
10872;SDS011;34586;53.616;10.032;2023-08-21T06:13:22;7.70;;;3.13;;
10872;SDS011;34586;53.616;10.032;2023-08-21T06:15:48;11.80;;;3.57;;
10872;SDS011;34586;53.616;10.032;2023-08-21T06:18:14;11.03;;;3.90;;
10872;SDS011;34586;53.616;10.032;2023-08-21T06:20:43;9.73;;;3.10;;
10872;SDS011;34586;53.616;10.032;2023-08-21T06:23:09;13.47;;;3.47;;
10872;SDS011;34586;53.616;10.032;2023-08-21T06:25:35;9.30;;;3.07;;
10872;SDS011;34586;53.616;10.032;2023-08-21T06:28:01;10.33;;;2.73;;
10872;SDS011;34586;53.616;10.032;2023-08-21T06:30:27;9.57;;;2.57;;
10872;SDS011;34586;53.616;10.032;2023-08-21T06:32:52;9.57;;;2.37;;
10872;SDS011;34586;53.616;10.032;2023-08-21T06:35:18;9.50;;;2.77;;
10872;SDS011;34586;53.616;10.032;2023-08-21T06:37:44;7.90;;;2.20;;
10872;SDS011;34586;53.616;10.032;2023-08-21T06:40:10;11.17;;;3.10;;
10872;SDS011;34586;53.616;10.032;2023-08-21T06:42:36;6.77;;;2.10;;
10872;SDS011;34586;53.616;10.032;2023-08-21T06:45:02;7.07;;;1.90;;
10872;SDS011;34586;53.616;10.032;2023-08-21T06:47:29;7.33;;;2.00;;
10872;SDS011;34586;53.616;10.032;2023-08-21T06:49:55;12.90;;;2.83;;
10872;SDS011;34586;53.616;10.032;2023-08-21T06:52:20;6.83;;;2.03;;
10872;SDS011;34586;53.616;10.032;2023-08-21T06:54:46;7.53;;;1.80;;
10872;SDS011;34586;53.616;10.032;2023-08-21T06:57:11;7.97;;;1.80;;
10872;SDS011;34586;53.616;10.032;2023-08-21T06:59:37;8.10;;;1.57;;
10872;SDS011;34586;53.616;10.032;2023-08-21T07:02:03;5.17;;;1.43;;
10872;SDS011;34586;53.616;10.032;2023-08-21T07:04:28;5.60;;;1.47;;
10872;SDS011;34586;53.616;10.032;2023-08-21T07:06:54;9.30;;;1.90;;
10872;SDS011;34586;53.616;10.032;2023-08-21T07:09:20;5.70;;;1.40;;
10872;SDS011;34586;53.616;10.032;2023-08-21T07:11:45;5.63;;;1.37;;
10872;SDS011;34586;53.616;10.032;2023-08-21T07:14:11;4.53;;;1.13;;
10872;SDS011;34586;53.616;10.032;2023-08-21T07:16:39;7.53;;;1.63;;
10872;SDS011;34586;53.616;10.032;2023-08-21T07:19:04;6.03;;;1.43;;
10872;SDS011;34586;53.616;10.032;2023-08-21T07:21:30;6.03;;;1.60;;
10872;SDS011;34586;53.616;10.032;2023-08-21T07:23:56;7.20;;;1.60;;
10872;SDS011;34586;53.616;10.032;2023-08-21T07:26:22;5.00;;;1.43;;
10872;SDS011;34586;53.616;10.032;2023-08-21T07:28:47;5.93;;;1.50;;
10872;SDS011;34586;53.616;10.032;2023-08-21T07:31:13;6.17;;;1.40;;
10872;SDS011;34586;53.616;10.032;2023-08-21T07:33:38;6.50;;;1.60;;
10872;SDS011;34586;53.616;10.032;2023-08-21T07:36:05;6.37;;;1.73;;
10872;SDS011;34586;53.616;10.032;2023-08-21T07:38:31;6.20;;;1.47;;
10872;SDS011;34586;53.616;10.032;2023-08-21T07:41:04;5.10;;;1.30;;
10872;SDS011;34586;53.616;10.032;2023-08-21T07:43:30;7.47;;;1.77;;
10872;SDS011;34586;53.616;10.032;2023-08-21T07:45:56;7.43;;;1.43;;
10872;SDS011;34586;53.616;10.032;2023-08-21T07:48:22;6.00;;;1.50;;
10872;SDS011;34586;53.616;10.032;2023-08-21T07:50:51;4.40;;;1.43;;
10872;SDS011;34586;53.616;10.032;2023-08-21T07:53:18;4.90;;;1.13;;
10872;SDS011;34586;53.616;10.032;2023-08-21T07:55:44;6.87;;;1.60;;
10872;SDS011;34586;53.616;10.032;2023-08-21T07:58:10;7.93;;;1.80;;
10872;SDS011;34586;53.616;10.032;2023-08-21T08:00:36;6.13;;;1.53;;
10872;SDS011;34586;53.616;10.032;2023-08-21T08:03:02;7.03;;;1.40;;
10872;SDS011;34586;53.616;10.032;2023-08-21T08:05:28;5.73;;;1.10;;
10872;SDS011;34586;53.616;10.032;2023-08-21T08:07:54;4.87;;;1.17;;
10872;SDS011;34586;53.616;10.032;2023-08-21T08:10:19;4.40;;;1.07;;
10872;SDS011;34586;53.616;10.032;2023-08-21T08:12:45;4.87;;;1.37;;
10872;SDS011;34586;53.616;10.032;2023-08-21T08:15:10;8.30;;;1.63;;
10872;SDS011;34586;53.616;10.032;2023-08-21T08:17:36;3.80;;;1.20;;
10872;SDS011;34586;53.616;10.032;2023-08-21T08:20:01;5.80;;;1.40;;
10872;SDS011;34586;53.616;10.032;2023-08-21T08:22:27;5.50;;;1.30;;
10872;SDS011;34586;53.616;10.032;2023-08-21T08:24:53;5.57;;;1.47;;
10872;SDS011;34586;53.616;10.032;2023-08-21T08:27:18;2.67;;;1.10;;
10872;SDS011;34586;53.616;10.032;2023-08-21T08:29:44;5.43;;;1.10;;
10872;SDS011;34586;53.616;10.032;2023-08-21T08:32:09;6.93;;;1.60;;
10872;SDS011;34586;53.616;10.032;2023-08-21T08:34:35;5.13;;;1.37;;
10872;SDS011;34586;53.616;10.032;2023-08-21T08:37:01;3.87;;;0.97;;
10872;SDS011;34586;53.616;10.032;2023-08-21T08:39:26;5.23;;;0.97;;
10872;SDS011;34586;53.616;10.032;2023-08-21T08:41:58;4.37;;;1.03;;
10872;SDS011;34586;53.616;10.032;2023-08-21T08:44:31;2.73;;;0.90;;
10872;SDS011;34586;53.616;10.032;2023-08-21T08:47:00;2.63;;;0.77;;
10872;SDS011;34586;53.616;10.032;2023-08-21T08:49:26;2.93;;;0.70;;
10872;SDS011;34586;53.616;10.032;2023-08-21T08:51:53;5.03;;;1.00;;
10872;SDS011;34586;53.616;10.032;2023-08-21T08:54:20;4.17;;;1.00;;
10872;SDS011;34586;53.616;10.032;2023-08-21T08:56:47;6.90;;;1.10;;
10872;SDS011;34586;53.616;10.032;2023-08-21T08:59:13;2.87;;;1.10;;
10872;SDS011;34586;53.616;10.032;2023-08-21T09:01:41;2.93;;;1.00;;
10872;SDS011;34586;53.616;10.032;2023-08-21T09:04:07;3.40;;;0.90;;
10872;SDS011;34586;53.616;10.032;2023-08-21T09:06:33;3.90;;;0.90;;
10872;SDS011;34586;53.616;10.032;2023-08-21T09:08:59;1.90;;;0.63;;
10872;SDS011;34586;53.616;10.032;2023-08-21T09:11:24;3.27;;;0.87;;
10872;SDS011;34586;53.616;10.032;2023-08-21T09:13:51;4.50;;;1.07;;
10872;SDS011;34586;53.616;10.032;2023-08-21T09:16:18;2.43;;;0.67;;
10872;SDS011;34586;53.616;10.032;2023-08-21T09:18:52;3.57;;;0.83;;
10872;SDS011;34586;53.616;10.032;2023-08-21T09:21:22;2.13;;;0.70;;
10872;SDS011;34586;53.616;10.032;2023-08-21T09:23:55;4.17;;;1.00;;
10872;SDS011;34586;53.616;10.032;2023-08-21T09:26:23;5.10;;;1.00;;
10872;SDS011;34586;53.616;10.032;2023-08-21T09:28:50;1.33;;;0.53;;
10872;SDS011;34586;53.616;10.032;2023-08-21T09:31:21;1.43;;;0.80;;
10872;SDS011;34586;53.616;10.032;2023-08-21T09:33:54;3.87;;;1.00;;
10872;SDS011;34586;53.616;10.032;2023-08-21T09:36:22;3.13;;;0.77;;
10872;SDS011;34586;53.616;10.032;2023-08-21T09:38:47;1.50;;;0.80;;
10872;SDS011;34586;53.616;10.032;2023-08-21T09:41:13;2.33;;;0.90;;
10872;SDS011;34586;53.616;10.032;2023-08-21T09:43:42;3.67;;;0.70;;
10872;SDS011;34586;53.616;10.032;2023-08-21T09:46:08;2.77;;;0.90;;
10872;SDS011;34586;53.616;10.032;2023-08-21T09:48:33;3.57;;;0.93;;
10872;SDS011;34586;53.616;10.032;2023-08-21T09:51:00;2.80;;;1.00;;
10872;SDS011;34586;53.616;10.032;2023-08-21T09:53:29;3.50;;;0.70;;
10872;SDS011;34586;53.616;10.032;2023-08-21T09:55:55;3.27;;;0.87;;
10872;SDS011;34586;53.616;10.032;2023-08-21T09:58:21;4.20;;;0.93;;
10872;SDS011;34586;53.616;10.032;2023-08-21T10:00:48;1.70;;;0.80;;
10872;SDS011;34586;53.616;10.032;2023-08-21T10:03:15;2.03;;;0.60;;
10872;SDS011;34586;53.616;10.032;2023-08-21T10:05:45;3.83;;;0.90;;
10872;SDS011;34586;53.616;10.032;2023-08-21T10:08:13;1.77;;;0.57;;
10872;SDS011;34586;53.616;10.032;2023-08-21T10:10:41;2.50;;;0.60;;
10872;SDS011;34586;53.616;10.032;2023-08-21T10:13:07;1.30;;;0.50;;
10872;SDS011;34586;53.616;10.032;2023-08-21T10:15:34;3.37;;;0.80;;
10872;SDS011;34586;53.616;10.032;2023-08-21T10:20:54;4.43;;;0.90;;
10872;SDS011;34586;53.616;10.032;2023-08-21T10:23:26;2.20;;;0.67;;
10872;SDS011;34586;53.616;10.032;2023-08-21T10:26:00;5.10;;;1.17;;
10872;SDS011;34586;53.616;10.032;2023-08-21T10:28:49;2.77;;;0.70;;
10872;SDS011;34586;53.616;10.032;2023-08-21T10:31:27;2.87;;;0.70;;
10872;SDS011;34586;53.616;10.032;2023-08-21T10:33:54;0.80;;;0.60;;
10872;SDS011;34586;53.616;10.032;2023-08-21T10:39:14;3.57;;;1.00;;
10872;SDS011;34586;53.616;10.032;2023-08-21T10:47:16;2.30;;;0.70;;
10872;SDS011;34586;53.616;10.032;2023-08-21T10:49:52;2.33;;;0.80;;
10872;SDS011;34586;53.616;10.032;2023-08-21T10:52:23;2.43;;;0.90;;
10872;SDS011;34586;53.616;10.032;2023-08-21T10:54:54;2.13;;;0.90;;
10872;SDS011;34586;53.616;10.032;2023-08-21T10:57:24;2.73;;;0.73;;
10872;SDS011;34586;53.616;10.032;2023-08-21T10:59:52;3.57;;;1.20;;
10872;SDS011;34586;53.616;10.032;2023-08-21T11:02:23;2.73;;;0.87;;
10872;SDS011;34586;53.616;10.032;2023-08-21T11:04:50;1.93;;;0.77;;
10872;SDS011;34586;53.616;10.032;2023-08-21T11:07:16;2.27;;;1.00;;
10872;SDS011;34586;53.616;10.032;2023-08-21T11:09:42;4.27;;;0.67;;
10872;SDS011;34586;53.616;10.032;2023-08-21T11:12:09;2.60;;;0.87;;
10872;SDS011;34586;53.616;10.032;2023-08-21T11:14:39;2.27;;;1.00;;
10872;SDS011;34586;53.616;10.032;2023-08-21T11:17:05;3.57;;;0.90;;
10872;SDS011;34586;53.616;10.032;2023-08-21T11:19:32;4.23;;;1.10;;
10872;SDS011;34586;53.616;10.032;2023-08-21T11:21:59;3.33;;;0.80;;
10872;SDS011;34586;53.616;10.032;2023-08-21T11:27:03;1.80;;;0.60;;
10872;SDS011;34586;53.616;10.032;2023-08-21T11:29:32;2.17;;;0.90;;
10872;SDS011;34586;53.616;10.032;2023-08-21T11:32:08;3.57;;;0.97;;
10872;SDS011;34586;53.616;10.032;2023-08-21T11:34:50;2.63;;;0.50;;
10872;SDS011;34586;53.616;10.032;2023-08-21T11:37:18;1.93;;;0.67;;
10872;SDS011;34586;53.616;10.032;2023-08-21T11:39:48;2.13;;;0.80;;
10872;SDS011;34586;53.616;10.032;2023-08-21T11:42:15;1.17;;;0.40;;
10872;SDS011;34586;53.616;10.032;2023-08-21T11:44:45;2.50;;;0.80;;
10872;SDS011;34586;53.616;10.032;2023-08-21T11:47:11;4.77;;;0.80;;
10872;SDS011;34586;53.616;10.032;2023-08-21T11:49:40;1.43;;;0.77;;
10872;SDS011;34586;53.616;10.032;2023-08-21T11:52:07;2.77;;;0.70;;
10872;SDS011;34586;53.616;10.032;2023-08-21T11:54:34;2.23;;;0.67;;
10872;SDS011;34586;53.616;10.032;2023-08-21T11:57:03;1.67;;;0.70;;
10872;SDS011;34586;53.616;10.032;2023-08-21T11:59:30;1.83;;;0.67;;
10872;SDS011;34586;53.616;10.032;2023-08-21T12:01:55;2.87;;;0.70;;
10872;SDS011;34586;53.616;10.032;2023-08-21T12:04:21;2.87;;;0.87;;
10872;SDS011;34586;53.616;10.032;2023-08-21T12:06:47;1.57;;;0.70;;
10872;SDS011;34586;53.616;10.032;2023-08-21T12:09:12;4.57;;;0.60;;
10872;SDS011;34586;53.616;10.032;2023-08-21T12:11:38;5.00;;;0.90;;
10872;SDS011;34586;53.616;10.032;2023-08-21T12:14:04;2.20;;;0.70;;
10872;SDS011;34586;53.616;10.032;2023-08-21T12:16:30;1.47;;;0.60;;
10872;SDS011;34586;53.616;10.032;2023-08-21T12:18:55;1.40;;;0.50;;
10872;SDS011;34586;53.616;10.032;2023-08-21T12:21:24;1.67;;;0.70;;
10872;SDS011;34586;53.616;10.032;2023-08-21T12:23:50;3.83;;;0.70;;
10872;SDS011;34586;53.616;10.032;2023-08-21T12:26:15;2.37;;;0.90;;
10872;SDS011;34586;53.616;10.032;2023-08-21T12:28:48;1.47;;;0.83;;
10872;SDS011;34586;53.616;10.032;2023-08-21T12:31:14;2.20;;;0.73;;
10872;SDS011;34586;53.616;10.032;2023-08-21T12:33:40;1.00;;;0.50;;
10872;SDS011;34586;53.616;10.032;2023-08-21T12:36:05;4.60;;;0.90;;
10872;SDS011;34586;53.616;10.032;2023-08-21T12:38:33;1.57;;;0.40;;
10872;SDS011;34586;53.616;10.032;2023-08-21T12:40:59;2.10;;;0.77;;
10872;SDS011;34586;53.616;10.032;2023-08-21T12:43:26;2.30;;;0.70;;
10872;SDS011;34586;53.616;10.032;2023-08-21T12:45:51;1.57;;;0.70;;
10872;SDS011;34586;53.616;10.032;2023-08-21T12:48:17;1.97;;;0.57;;
10872;SDS011;34586;53.616;10.032;2023-08-21T12:50:42;1.30;;;0.60;;
10872;SDS011;34586;53.616;10.032;2023-08-21T12:53:08;1.97;;;0.67;;
10872;SDS011;34586;53.616;10.032;2023-08-21T12:55:33;2.60;;;0.60;;
10872;SDS011;34586;53.616;10.032;2023-08-21T12:57:59;1.63;;;0.60;;
10872;SDS011;34586;53.616;10.032;2023-08-21T13:00:25;2.20;;;0.90;;
10872;SDS011;34586;53.616;10.032;2023-08-21T13:02:50;1.43;;;0.60;;
10872;SDS011;34586;53.616;10.032;2023-08-21T13:05:16;1.20;;;0.60;;
10872;SDS011;34586;53.616;10.032;2023-08-21T13:07:42;2.30;;;0.70;;
10872;SDS011;34586;53.616;10.032;2023-08-21T13:10:07;1.27;;;0.57;;
10872;SDS011;34586;53.616;10.032;2023-08-21T13:12:33;1.17;;;0.70;;
10872;SDS011;34586;53.616;10.032;2023-08-21T13:14:59;1.60;;;0.97;;
10872;SDS011;34586;53.616;10.032;2023-08-21T13:17:26;2.30;;;1.27;;
10872;SDS011;34586;53.616;10.032;2023-08-21T13:19:52;0.90;;;0.53;;
10872;SDS011;34586;53.616;10.032;2023-08-21T13:22:17;1.47;;;0.60;;
10872;SDS011;34586;53.616;10.032;2023-08-21T13:24:43;1.90;;;0.80;;
10872;SDS011;34586;53.616;10.032;2023-08-21T13:27:09;2.10;;;0.60;;
10872;SDS011;34586;53.616;10.032;2023-08-21T13:29:35;1.17;;;0.63;;
10872;SDS011;34586;53.616;10.032;2023-08-21T13:32:00;2.07;;;0.60;;
10872;SDS011;34586;53.616;10.032;2023-08-21T13:34:26;1.13;;;0.77;;
10872;SDS011;34586;53.616;10.032;2023-08-21T13:36:51;1.67;;;0.70;;
10872;SDS011;34586;53.616;10.032;2023-08-21T13:39:17;1.27;;;0.60;;
10872;SDS011;34586;53.616;10.032;2023-08-21T13:41:43;0.67;;;0.60;;
10872;SDS011;34586;53.616;10.032;2023-08-21T13:44:08;1.90;;;0.80;;
10872;SDS011;34586;53.616;10.032;2023-08-21T13:46:34;2.23;;;0.70;;
10872;SDS011;34586;53.616;10.032;2023-08-21T13:49:00;1.43;;;0.47;;
10872;SDS011;34586;53.616;10.032;2023-08-21T13:51:25;1.60;;;0.60;;
10872;SDS011;34586;53.616;10.032;2023-08-21T13:53:51;2.30;;;0.60;;
10872;SDS011;34586;53.616;10.032;2023-08-21T13:56:17;2.03;;;0.60;;
10872;SDS011;34586;53.616;10.032;2023-08-21T13:58:42;0.57;;;0.50;;
10872;SDS011;34586;53.616;10.032;2023-08-21T14:01:08;2.97;;;0.70;;
10872;SDS011;34586;53.616;10.032;2023-08-21T14:03:34;1.50;;;0.60;;
10872;SDS011;34586;53.616;10.032;2023-08-21T14:05:59;1.80;;;0.60;;
10872;SDS011;34586;53.616;10.032;2023-08-21T14:08:25;1.83;;;0.53;;
10872;SDS011;34586;53.616;10.032;2023-08-21T14:10:51;1.37;;;0.60;;
10872;SDS011;34586;53.616;10.032;2023-08-21T14:13:16;0.77;;;0.60;;
10872;SDS011;34586;53.616;10.032;2023-08-21T14:15:42;2.97;;;0.70;;
10872;SDS011;34586;53.616;10.032;2023-08-21T14:18:08;2.37;;;0.60;;
10872;SDS011;34586;53.616;10.032;2023-08-21T14:20:33;4.23;;;0.80;;
10872;SDS011;34586;53.616;10.032;2023-08-21T14:23:00;0.97;;;0.70;;
10872;SDS011;34586;53.616;10.032;2023-08-21T14:25:25;1.20;;;0.50;;
10872;SDS011;34586;53.616;10.032;2023-08-21T14:27:51;1.10;;;0.53;;
10872;SDS011;34586;53.616;10.032;2023-08-21T14:30:17;2.13;;;0.60;;
10872;SDS011;34586;53.616;10.032;2023-08-21T14:32:42;1.10;;;0.60;;
10872;SDS011;34586;53.616;10.032;2023-08-21T14:35:08;0.80;;;0.60;;
10872;SDS011;34586;53.616;10.032;2023-08-21T14:37:37;1.70;;;0.70;;
10872;SDS011;34586;53.616;10.032;2023-08-21T14:40:03;1.50;;;0.70;;
10872;SDS011;34586;53.616;10.032;2023-08-21T14:42:33;1.60;;;0.77;;
10872;SDS011;34586;53.616;10.032;2023-08-21T14:44:59;1.40;;;0.60;;